Time;durP1;ratioP1;P1;durP2;ratioP2;P2;SDS_P1;SDS_P2;PMS_P1;PMS_P2;Temp;Humidity;BMP_temperature;BMP_pressure;BME280_temperature;BME280_humidity;BME280_pressure;Samples;Min_cycle;Max_cycle;Signal;HPM_P1;HPM_P2
2023/08/27 00:00:46;;;;;;;17.17;13.75;;;;;;;;;;2093170;28;20405;-69
2023/08/27 00:02:05;;;;;;;15.80;13.10;;;;;;;;;;2093050;28;20386;-68
2023/08/27 00:03:24;;;;;;;13.98;12.68;;;;;;;;;;2092756;28;20033;-68
2023/08/27 00:04:44;;;;;;;16.00;14.35;;;;;;;;;;2090908;28;21480;-67
2023/08/27 00:06:03;;;;;;;13.77;12.40;;;;;;;;;;2093953;28;20381;-68
2023/08/27 00:07:23;;;;;;;14.02;12.57;;;;;;;;;;2083924;28;20028;-68
2023/08/27 00:08:42;;;;;;;13.35;12.05;;;;;;;;;;2088957;28;20108;-68
2023/08/27 00:10:01;;;;;;;17.52;13.10;;;;;;;;;;2093449;28;20021;-68
2023/08/27 00:11:20;;;;;;;15.63;13.65;;;;;;;;;;2094846;28;20021;-68
2023/08/27 00:12:40;;;;;;;14.68;13.10;;;;;;;;;;2083233;28;20029;-68
2023/08/27 00:13:59;;;;;;;14.43;12.93;;;;;;;;;;2090353;28;20334;-67
2023/08/27 00:15:18;;;;;;;17.17;12.73;;;;;;;;;;2092116;28;20326;-68
2023/08/27 00:16:36;;;;;;;15.40;13.05;;;;;;;;;;2094789;28;20032;-66
2023/08/27 00:17:55;;;;;;;13.75;12.35;;;;;;;;;;2094673;28;20041;-69
2023/08/27 00:19:15;;;;;;;13.10;11.80;;;;;;;;;;2092766;28;20025;-68
2023/08/27 00:20:34;;;;;;;13.75;12.32;;;;;;;;;;2091735;28;20495;-67
2023/08/27 00:21:53;;;;;;;14.48;12.48;;;;;;;;;;2093029;28;20024;-69
2023/08/27 00:23:12;;;;;;;15.18;12.35;;;;;;;;;;2092824;28;20029;-68
2023/08/27 00:24:32;;;;;;;13.07;11.75;;;;;;;;;;2092225;28;20033;-68
2023/08/27 00:25:51;;;;;;;13.32;11.88;;;;;;;;;;2093317;28;20025;-68
2023/08/27 00:27:10;;;;;;;12.05;10.85;;;;;;;;;;2093814;28;20088;-68
2023/08/27 00:28:29;;;;;;;13.70;12.20;;;;;;;;;;2093029;28;20025;-69
2023/08/27 00:29:48;;;;;;;14.05;12.10;;;;;;;;;;2092938;28;20103;-65
2023/08/27 00:31:07;;;;;;;13.75;11.90;;;;;;;;;;2092733;28;20095;-68
2023/08/27 00:32:31;;;;;;;13.43;12.05;;;;;;;;;;2092472;28;20029;-68
2023/08/27 00:33:50;;;;;;;12.50;11.27;;;;;;;;;;2090546;28;20076;-66
2023/08/27 00:35:09;;;;;;;12.85;11.55;;;;;;;;;;2092923;28;20033;-70
2023/08/27 00:36:28;;;;;;;11.82;10.63;;;;;;;;;;2094222;28;20545;-70
2023/08/27 00:37:47;;;;;;;13.27;11.13;;;;;;;;;;2093010;28;20060;-71
2023/08/27 00:39:06;;;;;;;12.10;10.70;;;;;;;;;;2084785;28;20022;-68
2023/08/27 00:40:29;;;;;;;12.73;11.52;;;;;;;;;;2090678;28;20541;-67
2023/08/27 00:41:47;;;;;;;14.30;11.35;;;;;;;;;;2093453;28;20033;-67
2023/08/27 00:43:06;;;;;;;15.43;11.55;;;;;;;;;;2084335;28;20504;-67
2023/08/27 00:44:25;;;;;;;12.32;10.93;;;;;;;;;;2089101;28;20036;-74
2023/08/27 00:45:44;;;;;;;13.60;12.02;;;;;;;;;;2091153;28;20029;-67
2023/08/27 00:47:04;;;;;;;12.57;11.23;;;;;;;;;;2092864;28;20489;-68
2023/08/27 00:48:23;;;;;;;13.45;11.20;;;;;;;;;;2082106;28;20053;-70
2023/08/27 00:49:42;;;;;;;11.80;10.50;;;;;;;;;;2088507;28;20578;-67
2023/08/27 00:51:03;;;;;;;13.00;10.65;;;;;;;;;;2091071;28;20025;-71
2023/08/27 00:52:22;;;;;;;11.68;10.63;;;;;;;;;;2091768;28;20025;-72
2023/08/27 00:53:42;;;;;;;12.30;11.20;;;;;;;;;;2090583;28;20382;-70
2023/08/27 00:55:01;;;;;;;12.45;11.30;;;;;;;;;;2093026;28;20029;-69
2023/08/27 00:56:20;;;;;;;12.00;10.85;;;;;;;;;;2092332;28;20942;-74
2023/08/27 00:57:40;;;;;;;12.52;11.30;;;;;;;;;;2093426;28;20037;-70
2023/08/27 00:59:00;;;;;;;14.52;11.55;;;;;;;;;;2092727;28;20104;-71
2023/08/27 01:00:20;;;;;;;11.45;10.30;;;;;;;;;;2092017;28;20095;-69
2023/08/27 01:01:39;;;;;;;12.98;11.25;;;;;;;;;;2091914;28;20033;-70
2023/08/27 01:02:58;;;;;;;12.88;10.55;;;;;;;;;;2091679;28;20017;-64
2023/08/27 01:04:16;;;;;;;11.23;10.23;;;;;;;;;;2091714;28;20061;-68
2023/08/27 01:05:36;;;;;;;15.95;12.38;;;;;;;;;;2092500;28;20021;-69
2023/08/27 01:06:58;;;;;;;14.52;11.73;;;;;;;;;;2090671;28;20374;-65
2023/08/27 01:08:33;;;;;;;12.70;10.90;;;;;;;;;;2091289;28;20025;-68
2023/08/27 01:10:12;;;;;;;12.35;11.15;;;;;;;;;;2092620;28;20021;-69
2023/08/27 01:11:40;;;;;;;11.48;10.38;;;;;;;;;;2091930;28;20025;-68
2023/08/27 01:13:03;;;;;;;12.10;10.82;;;;;;;;;;2092277;28;20377;-69
2023/08/27 01:14:22;;;;;;;12.30;10.88;;;;;;;;;;2092762;28;20021;-68
2023/08/27 01:15:42;;;;;;;12.57;11.30;;;;;;;;;;2091059;28;20647;-67
2023/08/27 01:17:03;;;;;;;12.18;11.07;;;;;;;;;;2092806;28;20029;-64
2023/08/27 01:18:22;;;;;;;14.77;11.23;;;;;;;;;;2084185;28;20120;-67
2023/08/27 01:19:42;;;;;;;12.38;11.20;;;;;;;;;;2087763;28;20029;-69
2023/08/27 01:21:21;;;;;;;13.55;11.55;;;;;;;;;;2090605;28;20024;-67
2023/08/27 01:22:40;;;;;;;12.32;11.13;;;;;;;;;;2091082;28;20029;-66
2023/08/27 01:23:59;;;;;;;11.93;10.73;;;;;;;;;;2092122;28;20025;-68
2023/08/27 01:25:19;;;;;;;12.57;11.27;;;;;;;;;;2093774;28;20147;-68
2023/08/27 01:26:50;;;;;;;12.60;11.30;;;;;;;;;;2092177;28;20452;-65
2023/08/27 01:28:30;;;;;;;11.95;10.75;;;;;;;;;;2083263;28;20033;-64
2023/08/27 01:29:57;;;;;;;11.02;9.95;;;;;;;;;;2094128;28;20034;-68
2023/08/27 01:31:19;;;;;;;11.20;9.85;;;;;;;;;;2093145;28;20115;-68
2023/08/27 01:32:41;;;;;;;11.07;10.05;;;;;;;;;;2093361;28;20104;-69
2023/08/27 01:34:05;;;;;;;9.35;8.43;;;;;;;;;;2094675;28;20025;-67
2023/08/27 01:35:24;;;;;;;10.90;9.38;;;;;;;;;;2095108;28;20020;-68
2023/08/27 01:36:43;;;;;;;10.05;9.02;;;;;;;;;;2092000;28;20485;-67
2023/08/27 01:38:02;;;;;;;8.73;7.90;;;;;;;;;;2094966;28;20029;-67
2023/08/27 01:39:22;;;;;;;9.38;8.48;;;;;;;;;;2094155;28;20414;-68
2023/08/27 01:40:41;;;;;;;8.43;7.82;;;;;;;;;;2092246;28;21677;-64
2023/08/27 01:42:00;;;;;;;8.63;7.72;;;;;;;;;;2094026;28;20288;-68
2023/08/27 01:43:19;;;;;;;10.60;8.73;;;;;;;;;;2089232;28;20037;-68
2023/08/27 01:44:38;;;;;;;9.07;8.15;;;;;;;;;;2091271;28;20029;-64
2023/08/27 01:45:57;;;;;;;8.00;7.32;;;;;;;;;;2092567;28;20025;-64
2023/08/27 01:47:16;;;;;;;8.45;7.85;;;;;;;;;;2094952;28;20029;-67
2023/08/27 01:48:35;;;;;;;8.45;7.75;;;;;;;;;;2093861;28;20037;-65
2023/08/27 01:49:54;;;;;;;8.95;8.25;;;;;;;;;;2094230;28;20032;-68
2023/08/27 01:51:13;;;;;;;7.93;7.32;;;;;;;;;;2095067;28;20028;-68
2023/08/27 01:52:33;;;;;;;8.98;8.02;;;;;;;;;;2094091;28;20461;-67
2023/08/27 01:53:52;;;;;;;8.02;7.35;;;;;;;;;;2093946;28;20057;-67
2023/08/27 01:55:11;;;;;;;8.57;7.68;;;;;;;;;;2095143;28;20032;-67
2023/08/27 01:56:30;;;;;;;7.78;7.07;;;;;;;;;;2092214;28;20040;-67
2023/08/27 01:57:49;;;;;;;7.57;6.90;;;;;;;;;;2086883;28;20033;-68
2023/08/27 01:59:08;;;;;;;7.20;6.60;;;;;;;;;;2090498;28;20037;-67
2023/08/27 02:00:27;;;;;;;5.95;5.25;;;;;;;;;;2092139;28;20040;-67
2023/08/27 02:01:46;;;;;;;5.40;5.00;;;;;;;;;;2094871;28;20387;-67
2023/08/27 02:03:05;;;;;;;4.88;4.47;;;;;;;;;;2093598;28;20032;-68
2023/08/27 02:04:24;;;;;;;4.35;4.05;;;;;;;;;;2092651;28;20036;-67
2023/08/27 02:05:46;;;;;;;4.40;4.10;;;;;;;;;;2093246;28;20477;-63
2023/08/27 02:07:05;;;;;;;5.30;3.70;;;;;;;;;;2094064;28;20056;-68
2023/08/27 02:08:24;;;;;;;4.60;4.07;;;;;;;;;;2095178;28;20040;-64
2023/08/27 02:09:43;;;;;;;3.85;3.55;;;;;;;;;;2094929;28;21638;-67
2023/08/27 02:11:03;;;;;;;4.25;3.95;;;;;;;;;;2094025;28;20537;-69
2023/08/27 02:12:22;;;;;;;4.97;4.40;;;;;;;;;;2094033;28;20025;-68
2023/08/27 02:13:41;;;;;;;3.92;3.50;;;;;;;;;;2093039;28;20025;-68
2023/08/27 02:15:00;;;;;;;3.40;3.13;;;;;;;;;;2091214;28;20113;-63
2023/08/27 02:16:19;;;;;;;3.78;3.40;;;;;;;;;;2091694;28;20112;-68
2023/08/27 02:17:38;;;;;;;3.60;3.40;;;;;;;;;;2093631;28;20564;-68
2023/08/27 02:18:57;;;;;;;4.10;3.80;;;;;;;;;;2092279;28;20018;-66
2023/08/27 02:20:16;;;;;;;3.80;3.50;;;;;;;;;;2083013;28;20049;-68
2023/08/27 02:21:35;;;;;;;3.88;3.13;;;;;;;;;;2090399;28;20032;-68
2023/08/27 02:22:55;;;;;;;3.42;3.22;;;;;;;;;;2092827;28;20484;-66
2023/08/27 02:24:13;;;;;;;3.25;3.05;;;;;;;;;;2093308;28;20481;-67
2023/08/27 02:25:32;;;;;;;2.95;2.63;;;;;;;;;;2093611;28;20076;-68
2023/08/27 02:26:52;;;;;;;2.72;2.53;;;;;;;;;;2093203;28;20397;-67
2023/08/27 02:28:11;;;;;;;3.10;2.90;;;;;;;;;;2092933;28;20025;-66
2023/08/27 02:29:30;;;;;;;2.85;2.65;;;;;;;;;;2093734;28;20112;-68
2023/08/27 02:30:49;;;;;;;2.53;2.42;;;;;;;;;;2093790;28;20384;-68
2023/08/27 02:32:08;;;;;;;3.08;2.88;;;;;;;;;;2094485;28;20036;-65
2023/08/27 02:33:27;;;;;;;3.92;2.90;;;;;;;;;;2094653;28;20485;-68
2023/08/27 02:34:46;;;;;;;2.83;2.63;;;;;;;;;;2092747;28;20494;-68
2023/08/27 02:36:05;;;;;;;2.95;2.75;;;;;;;;;;2092406;28;20108;-61
2023/08/27 02:37:24;;;;;;;2.97;2.65;;;;;;;;;;2093673;28;20099;-68
2023/08/27 02:38:43;;;;;;;2.70;2.38;;;;;;;;;;2092937;28;20063;-68
2023/08/27 02:40:03;;;;;;;2.75;2.55;;;;;;;;;;2093451;28;20033;-70
2023/08/27 02:41:22;;;;;;;2.47;2.38;;;;;;;;;;2092304;28;20735;-66
2023/08/27 02:42:40;;;;;;;4.20;2.50;;;;;;;;;;2092597;28;20025;-68
2023/08/27 02:43:59;;;;;;;2.40;2.20;;;;;;;;;;2086128;28;20032;-66
2023/08/27 02:45:19;;;;;;;2.80;2.60;;;;;;;;;;2089695;28;20478;-67
2023/08/27 02:46:38;;;;;;;2.88;2.15;;;;;;;;;;2093248;28;20033;-67
2023/08/27 02:47:57;;;;;;;2.95;1.85;;;;;;;;;;2095198;28;20424;-65
2023/08/27 02:49:16;;;;;;;2.00;1.90;;;;;;;;;;2094117;28;20032;-67
2023/08/27 02:50:36;;;;;;;1.98;1.88;;;;;;;;;;2093999;28;20095;-67
2023/08/27 02:51:54;;;;;;;2.88;2.30;;;;;;;;;;2092939;28;20032;-62
2023/08/27 02:53:13;;;;;;;1.90;1.80;;;;;;;;;;2094969;28;20033;-69
2023/08/27 02:54:32;;;;;;;4.18;2.25;;;;;;;;;;2092357;28;20456;-67
2023/08/27 02:55:51;;;;;;;1.95;1.85;;;;;;;;;;2094473;28;20036;-67
2023/08/27 02:57:10;;;;;;;1.88;1.75;;;;;;;;;;2094796;28;20041;-66
2023/08/27 02:58:30;;;;;;;2.45;1.88;;;;;;;;;;2092106;28;20072;-68
2023/08/27 02:59:49;;;;;;;2.22;1.90;;;;;;;;;;2095620;28;20044;-66
2023/08/27 03:01:07;;;;;;;2.28;2.00;;;;;;;;;;2093089;28;20111;-67
2023/08/27 03:02:26;;;;;;;1.70;1.60;;;;;;;;;;2090401;28;20036;-67
2023/08/27 03:03:46;;;;;;;1.73;1.63;;;;;;;;;;2094302;28;20504;-68
2023/08/27 03:05:05;;;;;;;1.83;1.73;;;;;;;;;;2093995;28;20370;-71
2023/08/27 03:06:24;;;;;;;1.45;1.35;;;;;;;;;;2093310;28;20367;-64
2023/08/27 03:07:44;;;;;;;1.60;1.50;;;;;;;;;;2095397;28;20392;-66
2023/08/27 03:09:02;;;;;;;1.50;1.40;;;;;;;;;;2091086;28;20041;-68
2023/08/27 03:10:22;;;;;;;2.78;1.15;;;;;;;;;;2093983;28;20056;-68
2023/08/27 03:11:41;;;;;;;1.60;1.50;;;;;;;;;;2095081;28;20029;-68
2023/08/27 03:13:00;;;;;;;1.48;1.38;;;;;;;;;;2092893;28;20024;-68
2023/08/27 03:14:19;;;;;;;2.65;1.40;;;;;;;;;;2091985;28;20036;-68
2023/08/27 03:15:38;;;;;;;1.35;1.20;;;;;;;;;;2091466;28;20040;-68
2023/08/27 03:16:57;;;;;;;1.30;1.20;;;;;;;;;;2091270;28;20111;-68
2023/08/27 03:18:15;;;;;;;2.92;1.30;;;;;;;;;;2090714;28;20606;-63
2023/08/27 03:19:34;;;;;;;2.60;1.30;;;;;;;;;;2093285;28;20148;-68
2023/08/27 03:20:53;;;;;;;1.35;1.25;;;;;;;;;;2091023;28;20033;-67
2023/08/27 03:22:12;;;;;;;1.40;1.30;;;;;;;;;;2092474;28;20115;-68
2023/08/27 03:23:35;;;;;;;1.33;1.15;;;;;;;;;;2093478;28;20036;-69
2023/08/27 03:24:54;;;;;;;1.60;1.50;;;;;;;;;;2092824;28;20028;-69
2023/08/27 03:26:13;;;;;;;1.65;1.55;;;;;;;;;;2092791;28;20028;-67
2023/08/27 03:27:33;;;;;;;3.45;1.30;;;;;;;;;;2095220;28;20389;-68
2023/08/27 03:28:52;;;;;;;1.15;1.10;;;;;;;;;;2094397;28;20107;-65
2023/08/27 03:30:11;;;;;;;1.80;1.70;;;;;;;;;;2092941;28;20029;-67
2023/08/27 03:31:30;;;;;;;1.40;1.33;;;;;;;;;;2094639;28;20024;-68
2023/08/27 03:32:49;;;;;;;1.40;1.30;;;;;;;;;;2093507;28;20265;-68
2023/08/27 03:34:08;;;;;;;1.20;1.17;;;;;;;;;;2084261;28;20025;-68
2023/08/27 03:35:26;;;;;;;1.85;1.70;;;;;;;;;;2091122;28;20032;-68
2023/08/27 03:36:45;;;;;;;1.40;1.30;;;;;;;;;;2090233;28;20064;-68
2023/08/27 03:38:04;;;;;;;2.33;1.52;;;;;;;;;;2093646;28;20036;-67
2023/08/27 03:39:23;;;;;;;1.90;1.30;;;;;;;;;;2092735;28;20071;-67
2023/08/27 03:40:46;;;;;;;1.35;1.25;;;;;;;;;;2091883;28;20474;-67
2023/08/27 03:42:05;;;;;;;1.95;1.20;;;;;;;;;;2089635;28;20021;-68
2023/08/27 03:43:24;;;;;;;2.40;1.52;;;;;;;;;;2085659;28;20037;-69
2023/08/27 03:44:43;;;;;;;2.30;1.20;;;;;;;;;;2087169;28;20024;-64
2023/08/27 03:46:02;;;;;;;1.58;1.48;;;;;;;;;;2093058;28;20339;-68
2023/08/27 03:47:21;;;;;;;2.00;1.20;;;;;;;;;;2093894;28;20388;-67
2023/08/27 03:48:40;;;;;;;1.17;1.08;;;;;;;;;;2089841;28;20713;-68
2023/08/27 03:49:59;;;;;;;1.30;1.20;;;;;;;;;;2094962;28;20028;-67
2023/08/27 03:51:18;;;;;;;1.40;1.30;;;;;;;;;;2092857;28;20033;-69
2023/08/27 03:52:37;;;;;;;2.33;1.30;;;;;;;;;;2092335;28;20123;-68
2023/08/27 03:53:57;;;;;;;1.60;1.50;;;;;;;;;;2093692;28;20450;-69
2023/08/27 03:55:16;;;;;;;2.72;1.10;;;;;;;;;;2094772;28;20025;-68
2023/08/27 03:56:35;;;;;;;1.70;1.60;;;;;;;;;;2091812;28;20036;-68
2023/08/27 03:57:54;;;;;;;2.20;1.50;;;;;;;;;;2084641;28;20025;-68
2023/08/27 03:59:13;;;;;;;2.28;1.45;;;;;;;;;;2088036;28;20029;-68
2023/08/27 04:00:33;;;;;;;1.85;1.40;;;;;;;;;;2092603;28;20073;-68
2023/08/27 04:01:52;;;;;;;1.23;1.13;;;;;;;;;;2094384;28;20029;-66
2023/08/27 04:03:11;;;;;;;1.33;1.23;;;;;;;;;;2093789;28;20025;-68
2023/08/27 04:04:32;;;;;;;1.10;1.00;;;;;;;;;;2093567;28;20029;-67
2023/08/27 04:05:51;;;;;;;1.30;1.20;;;;;;;;;;2094067;28;20494;-69
2023/08/27 04:07:11;;;;;;;1.10;1.10;;;;;;;;;;2093115;28;20028;-68
2023/08/27 04:08:30;;;;;;;1.10;1.02;;;;;;;;;;2094263;28;20397;-69
2023/08/27 04:09:49;;;;;;;1.23;1.10;;;;;;;;;;2094196;28;20405;-68
2023/08/27 04:11:09;;;;;;;1.27;1.17;;;;;;;;;;2094279;28;20020;-68
2023/08/27 04:12:28;;;;;;;1.55;1.30;;;;;;;;;;2093874;28;20025;-68
2023/08/27 04:13:47;;;;;;;1.13;1.02;;;;;;;;;;2092775;28;20016;-68
2023/08/27 04:15:06;;;;;;;1.00;1.00;;;;;;;;;;2093988;28;20485;-67
2023/08/27 04:16:25;;;;;;;1.00;1.00;;;;;;;;;;2094096;28;20048;-69
2023/08/27 04:17:43;;;;;;;1.20;1.10;;;;;;;;;;2093901;28;20107;-67
2023/08/27 04:19:02;;;;;;;1.10;0.98;;;;;;;;;;2094188;28;20412;-68
2023/08/27 04:20:21;;;;;;;2.42;1.10;;;;;;;;;;2093859;28;20025;-67
2023/08/27 04:21:40;;;;;;;1.13;1.02;;;;;;;;;;2092863;28;20032;-64
2023/08/27 04:22:59;;;;;;;0.82;0.82;;;;;;;;;;2094243;28;20517;-68
2023/08/27 04:24:18;;;;;;;1.15;1.10;;;;;;;;;;2094120;28;20493;-67
2023/08/27 04:25:37;;;;;;;1.10;1.00;;;;;;;;;;2091295;28;20025;-68
2023/08/27 04:26:58;;;;;;;2.30;0.90;;;;;;;;;;2092887;28;20033;-68
2023/08/27 04:28:17;;;;;;;1.38;1.17;;;;;;;;;;2093654;28;20052;-65
2023/08/27 04:29:36;;;;;;;2.55;1.13;;;;;;;;;;2094003;28;20025;-67
2023/08/27 04:30:55;;;;;;;1.02;0.93;;;;;;;;;;2090937;28;20111;-67
2023/08/27 04:32:14;;;;;;;2.75;1.17;;;;;;;;;;2093568;28;20028;-68
2023/08/27 04:33:33;;;;;;;1.77;1.20;;;;;;;;;;2093263;28;20075;-68
2023/08/27 04:34:52;;;;;;;0.90;0.90;;;;;;;;;;2092313;28;20025;-70
2023/08/27 04:36:11;;;;;;;0.77;0.77;;;;;;;;;;2093174;28;20032;-69
2023/08/27 04:37:30;;;;;;;0.93;0.80;;;;;;;;;;2092425;28;20857;-68
2023/08/27 04:38:49;;;;;;;1.52;1.02;;;;;;;;;;2093125;28;20437;-68
2023/08/27 04:40:08;;;;;;;1.80;0.90;;;;;;;;;;2084527;28;20037;-68
2023/08/27 04:41:27;;;;;;;1.30;1.20;;;;;;;;;;2089421;28;20638;-68
2023/08/27 04:42:46;;;;;;;1.25;1.15;;;;;;;;;;2092129;28;20580;-67
2023/08/27 04:44:05;;;;;;;1.85;0.82;;;;;;;;;;2093756;28;20032;-67
2023/08/27 04:45:24;;;;;;;1.42;1.10;;;;;;;;;;2092171;28;20041;-67
2023/08/27 04:46:43;;;;;;;1.75;1.15;;;;;;;;;;2091832;28;20025;-67
2023/08/27 04:48:03;;;;;;;1.10;1.00;;;;;;;;;;2094355;28;20028;-67
2023/08/27 04:49:22;;;;;;;1.15;1.05;;;;;;;;;;2091886;28;20107;-68
2023/08/27 04:50:45;;;;;;;3.28;1.13;;;;;;;;;;2084344;28;20482;-68
2023/08/27 04:52:04;;;;;;;1.35;1.20;;;;;;;;;;2089769;28;20082;-68
2023/08/27 04:53:23;;;;;;;1.42;1.20;;;;;;;;;;2082571;28;20032;-68
2023/08/27 04:54:42;;;;;;;2.08;1.20;;;;;;;;;;2090301;28;20032;-65
2023/08/27 04:56:01;;;;;;;1.50;1.40;;;;;;;;;;2093233;28;20686;-68
2023/08/27 04:57:20;;;;;;;2.35;1.00;;;;;;;;;;2093803;28;20041;-64
2023/08/27 04:58:39;;;;;;;1.20;1.10;;;;;;;;;;2081643;28;20514;-66
2023/08/27 04:59:58;;;;;;;1.25;1.00;;;;;;;;;;2090872;28;20423;-69
2023/08/27 05:01:17;;;;;;;2.15;1.10;;;;;;;;;;2094419;28;20162;-68
2023/08/27 05:02:36;;;;;;;1.67;1.40;;;;;;;;;;2095351;28;20111;-67
2023/08/27 05:03:55;;;;;;;1.83;1.30;;;;;;;;;;2095485;28;20021;-68
2023/08/27 05:05:14;;;;;;;1.20;1.13;;;;;;;;;;2095517;28;20036;-69
2023/08/27 05:06:33;;;;;;;1.35;1.30;;;;;;;;;;2093058;28;20119;-67
2023/08/27 05:07:52;;;;;;;2.85;1.30;;;;;;;;;;2094297;28;20016;-68
2023/08/27 05:09:11;;;;;;;1.42;1.33;;;;;;;;;;2095827;28;20024;-68
2023/08/27 05:10:30;;;;;;;1.73;1.05;;;;;;;;;;2095395;28;20032;-67
2023/08/27 05:11:49;;;;;;;1.45;1.27;;;;;;;;;;2093012;28;20497;-68
2023/08/27 05:13:08;;;;;;;2.22;1.30;;;;;;;;;;2094047;28;20028;-67
2023/08/27 05:14:26;;;;;;;1.80;1.38;;;;;;;;;;2093835;28;20032;-70
2023/08/27 05:15:48;;;;;;;2.38;1.48;;;;;;;;;;2091463;28;20020;-67
2023/08/27 05:17:07;;;;;;;1.40;1.30;;;;;;;;;;2095322;28;20029;-67
2023/08/27 05:18:26;;;;;;;1.60;1.50;;;;;;;;;;2094688;28;20069;-69
2023/08/27 05:19:45;;;;;;;1.10;1.10;;;;;;;;;;2093484;28;20029;-67
2023/08/27 05:21:04;;;;;;;1.40;1.30;;;;;;;;;;2092331;28;20028;-69
2023/08/27 05:22:23;;;;;;;2.15;1.08;;;;;;;;;;2094146;28;20553;-69
2023/08/27 05:23:42;;;;;;;3.72;1.48;;;;;;;;;;2094254;28;20029;-65
2023/08/27 05:25:02;;;;;;;1.13;1.13;;;;;;;;;;2095000;28;20040;-65
2023/08/27 05:26:22;;;;;;;2.25;1.27;;;;;;;;;;2094811;28;20029;-68
2023/08/27 05:27:44;;;;;;;1.40;1.30;;;;;;;;;;2094343;28;20029;-65
2023/08/27 05:29:04;;;;;;;3.20;1.75;;;;;;;;;;2095485;28;20029;-69
2023/08/27 05:30:24;;;;;;;2.10;1.60;;;;;;;;;;2092678;28;20021;-69
2023/08/27 05:31:43;;;;;;;1.25;1.17;;;;;;;;;;2096052;28;20013;-68
2023/08/27 05:33:02;;;;;;;2.05;1.40;;;;;;;;;;2095163;28;20111;-71
2023/08/27 05:34:23;;;;;;;1.50;1.40;;;;;;;;;;2094230;28;20040;-69
2023/08/27 05:35:43;;;;;;;1.83;1.50;;;;;;;;;;2093773;28;20077;-70
2023/08/27 05:37:02;;;;;;;4.05;1.48;;;;;;;;;;2095871;28;20021;-68
2023/08/27 05:38:21;;;;;;;1.35;1.10;;;;;;;;;;2086708;28;20505;-69
2023/08/27 05:39:39;;;;;;;1.73;1.40;;;;;;;;;;2090575;28;20098;-69
2023/08/27 05:40:58;;;;;;;2.88;1.38;;;;;;;;;;2094962;28;20021;-68
2023/08/27 05:42:18;;;;;;;1.40;1.30;;;;;;;;;;2094529;28;20416;-68
2023/08/27 05:43:36;;;;;;;1.85;1.67;;;;;;;;;;2094981;28;20028;-69
2023/08/27 05:44:55;;;;;;;1.38;1.27;;;;;;;;;;2094117;28;20036;-70
2023/08/27 05:46:14;;;;;;;1.55;1.30;;;;;;;;;;2093041;28;20025;-68
2023/08/27 05:47:33;;;;;;;1.50;1.40;;;;;;;;;;2096101;28;20036;-69
2023/08/27 05:48:52;;;;;;;1.60;1.40;;;;;;;;;;2094030;28;20028;-69
2023/08/27 05:50:11;;;;;;;2.55;1.40;;;;;;;;;;2096570;28;20028;-68
2023/08/27 05:51:30;;;;;;;2.88;1.23;;;;;;;;;;2094046;28;20048;-69
2023/08/27 05:52:49;;;;;;;1.40;1.30;;;;;;;;;;2094044;28;20033;-67
2023/08/27 05:54:08;;;;;;;2.92;1.40;;;;;;;;;;2094231;28;20025;-68
2023/08/27 05:55:27;;;;;;;2.20;1.63;;;;;;;;;;2093455;28;20025;-66
2023/08/27 05:56:46;;;;;;;1.50;1.40;;;;;;;;;;2086958;28;20032;-69
2023/08/27 05:58:05;;;;;;;5.00;1.27;;;;;;;;;;2089172;28;20041;-68
2023/08/27 05:59:24;;;;;;;1.70;1.60;;;;;;;;;;2093882;28;20017;-69
2023/08/27 06:00:43;;;;;;;1.40;1.30;;;;;;;;;;2093397;28;20797;-70
2023/08/27 06:02:03;;;;;;;1.95;1.42;;;;;;;;;;2090338;28;20025;-69
2023/08/27 06:03:22;;;;;;;1.58;1.42;;;;;;;;;;2093998;28;20051;-69
2023/08/27 06:04:41;;;;;;;1.20;1.10;;;;;;;;;;2086745;28;20460;-64
2023/08/27 06:06:00;;;;;;;1.60;1.50;;;;;;;;;;2090907;28;20025;-68
2023/08/27 06:07:19;;;;;;;2.80;1.75;;;;;;;;;;2094508;28;20033;-70
2023/08/27 06:08:38;;;;;;;2.58;1.45;;;;;;;;;;2094911;28;20105;-68
2023/08/27 06:09:57;;;;;;;2.33;1.52;;;;;;;;;;2093133;28;20016;-69
2023/08/27 06:11:16;;;;;;;1.30;1.27;;;;;;;;;;2093659;28;20013;-66
2023/08/27 06:12:35;;;;;;;1.27;1.25;;;;;;;;;;2095503;28;20428;-70
2023/08/27 06:13:54;;;;;;;1.50;1.30;;;;;;;;;;2095634;28;20041;-68
2023/08/27 06:15:13;;;;;;;1.50;1.40;;;;;;;;;;2092797;28;20033;-66
2023/08/27 06:16:31;;;;;;;1.58;1.48;;;;;;;;;;2093579;28;20036;-67
2023/08/27 06:17:54;;;;;;;3.28;1.50;;;;;;;;;;2093063;28;20032;-68
2023/08/27 06:19:13;;;;;;;1.30;1.20;;;;;;;;;;2092737;28;21115;-69
2023/08/27 06:20:36;;;;;;;1.40;1.30;;;;;;;;;;2092049;28;20143;-69
2023/08/27 06:21:56;;;;;;;2.25;1.45;;;;;;;;;;2095983;28;20100;-69
2023/08/27 06:23:15;;;;;;;1.42;1.33;;;;;;;;;;2094541;28;20485;-67
2023/08/27 06:24:34;;;;;;;2.53;1.52;;;;;;;;;;2094762;28;20431;-68
2023/08/27 06:25:54;;;;;;;1.65;1.55;;;;;;;;;;2086292;28;20037;-73
2023/08/27 06:27:14;;;;;;;1.67;1.33;;;;;;;;;;2093315;28;20100;-71
2023/08/27 06:28:33;;;;;;;1.23;1.13;;;;;;;;;;2093497;28;20111;-69
2023/08/27 06:29:52;;;;;;;1.92;1.10;;;;;;;;;;2091343;28;20047;-68
2023/08/27 06:31:11;;;;;;;3.00;1.20;;;;;;;;;;2086234;28;20875;-65
2023/08/27 06:32:30;;;;;;;1.50;1.40;;;;;;;;;;2081433;28;20393;-65
2023/08/27 06:33:49;;;;;;;1.42;1.33;;;;;;;;;;2090634;28;20490;-66
2023/08/27 06:35:09;;;;;;;1.77;1.67;;;;;;;;;;2081059;28;20037;-69
2023/08/27 06:36:28;;;;;;;1.20;1.08;;;;;;;;;;2090857;28;20036;-68
2023/08/27 06:37:47;;;;;;;3.65;1.58;;;;;;;;;;2092765;28;20033;-71
2023/08/27 06:39:06;;;;;;;2.78;1.25;;;;;;;;;;2095207;28;20036;-68
2023/08/27 06:40:29;;;;;;;2.90;1.20;;;;;;;;;;2094994;28;20068;-69
2023/08/27 06:41:48;;;;;;;1.30;1.20;;;;;;;;;;2093983;28;20025;-63
2023/08/27 06:43:08;;;;;;;2.78;1.20;;;;;;;;;;2094727;28;20477;-69
2023/08/27 06:44:27;;;;;;;1.50;1.40;;;;;;;;;;2093257;28;20029;-67
2023/08/27 06:45:45;;;;;;;1.38;1.20;;;;;;;;;;2092685;28;20033;-68
2023/08/27 06:47:05;;;;;;;8.18;1.42;;;;;;;;;;2093194;28;20033;-69
2023/08/27 06:48:23;;;;;;;1.95;1.40;;;;;;;;;;2087260;28;20071;-68
2023/08/27 06:49:42;;;;;;;1.40;1.30;;;;;;;;;;2089760;28;20032;-65
2023/08/27 06:51:02;;;;;;;2.88;2.53;;;;;;;;;;2092345;28;20572;-69
2023/08/27 06:52:21;;;;;;;1.67;1.27;;;;;;;;;;2095235;28;20033;-69
2023/08/27 06:53:40;;;;;;;1.40;1.30;;;;;;;;;;2094200;28;20025;-68
2023/08/27 06:54:59;;;;;;;4.22;1.48;;;;;;;;;;2093816;28;20107;-65
2023/08/27 06:56:18;;;;;;;4.55;2.70;;;;;;;;;;2095342;28;20070;-68
2023/08/27 06:57:38;;;;;;;1.48;1.30;;;;;;;;;;2095872;28;20060;-68
2023/08/27 06:58:57;;;;;;;3.60;1.10;;;;;;;;;;2096846;28;20032;-68
2023/08/27 07:00:17;;;;;;;4.13;1.67;;;;;;;;;;2096212;28;20532;-67
2023/08/27 07:01:36;;;;;;;4.05;1.30;;;;;;;;;;2091522;28;20489;-68
2023/08/27 07:02:55;;;;;;;1.42;1.08;;;;;;;;;;2090980;28;20028;-65
2023/08/27 07:04:14;;;;;;;1.73;1.20;;;;;;;;;;2090635;28;20031;-70
2023/08/27 07:05:33;;;;;;;2.22;0.98;;;;;;;;;;2092935;28;20040;-68
2023/08/27 07:06:53;;;;;;;1.85;1.33;;;;;;;;;;2092409;28;20025;-66
2023/08/27 07:08:12;;;;;;;2.00;1.42;;;;;;;;;;2093239;28;20155;-71
2023/08/27 07:09:31;;;;;;;3.22;1.00;;;;;;;;;;2091748;28;20028;-71
2023/08/27 07:10:50;;;;;;;2.17;1.20;;;;;;;;;;2092360;28;20025;-66
2023/08/27 07:12:09;;;;;;;2.97;0.98;;;;;;;;;;2093568;28;20037;-70
2023/08/27 07:13:29;;;;;;;1.25;1.00;;;;;;;;;;2092611;28;20032;-70
2023/08/27 07:14:48;;;;;;;1.13;1.02;;;;;;;;;;2092085;28;20037;-70
2023/08/27 07:16:06;;;;;;;3.92;1.17;;;;;;;;;;2092732;28;20028;-66
2023/08/27 07:17:26;;;;;;;2.08;1.52;;;;;;;;;;2094629;28;20041;-68
2023/08/27 07:18:46;;;;;;;1.60;1.50;;;;;;;;;;2093106;28;20028;-66
2023/08/27 07:20:07;;;;;;;4.75;2.75;;;;;;;;;;2093538;28;20057;-67
2023/08/27 07:21:29;;;;;;;1.75;1.40;;;;;;;;;;2092630;28;20060;-68
2023/08/27 07:22:48;;;;;;;1.83;1.33;;;;;;;;;;2094381;28;20103;-67
2023/08/27 07:24:08;;;;;;;3.72;2.10;;;;;;;;;;2090631;28;20036;-65
2023/08/27 07:25:27;;;;;;;2.05;1.40;;;;;;;;;;2084626;28;20053;-70
2023/08/27 07:26:45;;;;;;;1.40;1.25;;;;;;;;;;2089226;28;20028;-72
2023/08/27 07:28:04;;;;;;;2.95;2.28;;;;;;;;;;2094358;28;20473;-69
2023/08/27 07:29:24;;;;;;;2.97;1.52;;;;;;;;;;2091406;28;20029;-67
2023/08/27 07:30:43;;;;;;;2.67;1.10;;;;;;;;;;2084872;28;20641;-62
2023/08/27 07:32:03;;;;;;;4.28;1.50;;;;;;;;;;2091155;28;20028;-65
2023/08/27 07:33:23;;;;;;;3.03;1.73;;;;;;;;;;2094508;28;20221;-69
2023/08/27 07:34:42;;;;;;;2.08;1.70;;;;;;;;;;2092522;28;20029;-70
2023/08/27 07:36:01;;;;;;;1.90;1.00;;;;;;;;;;2081944;28;20029;-68
2023/08/27 07:37:19;;;;;;;3.22;1.63;;;;;;;;;;2088321;28;20044;-66
2023/08/27 07:38:40;;;;;;;3.85;1.40;;;;;;;;;;2093391;28;20708;-70
2023/08/27 07:39:59;;;;;;;2.28;1.17;;;;;;;;;;2085343;28;20037;-67
2023/08/27 07:41:18;;;;;;;2.00;1.42;;;;;;;;;;2089804;28;20033;-70
2023/08/27 07:42:37;;;;;;;4.10;1.40;;;;;;;;;;2093611;28;20489;-73
2023/08/27 07:43:56;;;;;;;2.53;1.35;;;;;;;;;;2091271;28;20036;-70
2023/08/27 07:45:15;;;;;;;2.40;1.25;;;;;;;;;;2086431;28;20032;-67
2023/08/27 07:46:34;;;;;;;3.25;1.40;;;;;;;;;;2089380;28;20033;-69
2023/08/27 07:47:53;;;;;;;2.22;1.10;;;;;;;;;;2094351;28;20029;-65
2023/08/27 07:49:12;;;;;;;1.75;1.60;;;;;;;;;;2093046;28;20073;-71
2023/08/27 07:50:31;;;;;;;3.22;1.38;;;;;;;;;;2093503;28;20024;-71
2023/08/27 07:51:50;;;;;;;1.80;1.45;;;;;;;;;;2090167;28;20866;-70
2023/08/27 07:53:09;;;;;;;2.28;1.27;;;;;;;;;;2093695;28;20028;-71
2023/08/27 07:54:28;;;;;;;1.60;1.35;;;;;;;;;;2092289;28;20477;-71